createdAt,value
2022-11-18T00:01:22.048Z,15.82
2022-11-18T00:03:50.182Z,15.77
2022-11-18T00:06:22.151Z,15.20
2022-11-18T00:08:49.149Z,15.20
2022-11-18T00:11:40.358Z,16.42
2022-11-18T00:14:21.196Z,16.05
2022-11-18T00:16:52.793Z,16.13
2022-11-18T00:19:21.603Z,15.90
2022-11-18T00:21:48.738Z,15.55
2022-11-18T00:24:15.548Z,16.55
2022-11-18T00:26:42.445Z,17.00
2022-11-18T00:29:12.985Z,16.25
2022-11-18T00:31:40.314Z,16.90
2022-11-18T00:34:07.561Z,15.73
2022-11-18T00:36:34.283Z,14.90
2022-11-18T00:39:01.233Z,14.82
2022-11-18T00:41:50.572Z,13.63
2022-11-18T00:44:17.608Z,13.73
2022-11-18T00:46:44.299Z,13.82
2022-11-18T00:49:11.022Z,14.25
2022-11-18T00:51:37.882Z,14.68
2022-11-18T00:54:04.706Z,13.38
2022-11-18T00:56:32.094Z,12.32
2022-11-18T00:58:59.006Z,14.02
2022-11-18T01:01:26.440Z,12.98
2022-11-18T01:03:54.774Z,13.20
2022-11-18T01:06:21.512Z,13.55
2022-11-18T01:08:48.191Z,14.45
2022-11-18T01:11:33.537Z,12.50
2022-11-18T01:14:00.290Z,11.68
2022-11-18T01:16:28.035Z,12.23
2022-11-18T01:18:54.883Z,11.10
2022-11-18T01:21:21.776Z,10.80
2022-11-18T01:23:49.092Z,14.75
2022-11-18T01:26:16.931Z,11.90
2022-11-18T01:28:44.286Z,13.32
2022-11-18T01:31:17.832Z,13.15
2022-11-18T01:33:45.475Z,13.18
2022-11-18T01:36:23.478Z,13.40
2022-11-18T01:38:51.619Z,10.88
2022-11-18T01:41:20.683Z,10.75
2022-11-18T01:43:55.154Z,11.90
2022-11-18T01:46:24.059Z,12.32
2022-11-18T01:48:55.618Z,12.60
2022-11-18T01:51:31.740Z,9.88
2022-11-18T01:54:16.505Z,8.60
2022-11-18T01:56:47.472Z,8.38
2022-11-18T01:59:20.748Z,7.90
2022-11-18T02:01:47.791Z,6.75
2022-11-18T02:04:15.299Z,6.93
2022-11-18T02:06:46.460Z,7.18
2022-11-18T02:09:15.890Z,7.50
2022-11-18T02:11:56.384Z,6.40
2022-11-18T02:14:36.299Z,6.75
2022-11-18T02:17:07.345Z,7.05
2022-11-18T02:19:48.960Z,6.88
2022-11-18T02:22:53.630Z,7.00
2022-11-18T02:25:49.783Z,8.77
2022-11-18T02:28:22.843Z,8.40
2022-11-18T02:31:12.098Z,8.50
2022-11-18T02:33:50.268Z,7.85
2022-11-18T02:36:30.475Z,7.13
2022-11-18T02:39:07.769Z,6.35
2022-11-18T02:41:36.685Z,6.85
2022-11-18T02:44:20.945Z,6.68
2022-11-18T02:46:51.461Z,7.00
2022-11-18T02:49:29.010Z,6.78
2022-11-18T02:51:57.875Z,7.30
2022-11-18T02:54:26.501Z,5.75
2022-11-18T02:56:54.481Z,6.57
2022-11-18T02:59:21.457Z,8.02
2022-11-18T03:01:48.488Z,7.50
2022-11-18T03:04:18.481Z,6.10
2022-11-18T03:07:11.147Z,6.70
2022-11-18T03:09:40.791Z,7.68
2022-11-18T03:12:27.050Z,7.70
2022-11-18T03:14:53.947Z,7.15
2022-11-18T03:17:38.804Z,8.05
2022-11-18T03:20:35.077Z,6.60
2022-11-18T03:23:16.953Z,6.78
2022-11-18T03:25:58.608Z,6.45
2022-11-18T03:28:32.551Z,6.68
2022-11-18T03:30:59.489Z,6.65
2022-11-18T03:34:03.678Z,7.28
2022-11-18T03:36:35.796Z,7.85
2022-11-18T03:39:05.242Z,9.40
2022-11-18T03:41:36.897Z,10.20
2022-11-18T03:44:26.352Z,9.68
2022-11-18T03:47:02.622Z,11.38
2022-11-18T03:49:43.671Z,10.18
2022-11-18T03:52:21.746Z,10.57
2022-11-18T03:54:52.453Z,11.52
2022-11-18T04:00:07.619Z,10.70
2022-11-18T04:02:34.679Z,12.05
2022-11-18T04:05:04.606Z,12.90
2022-11-18T04:07:36.884Z,12.35
2022-11-18T04:10:13.849Z,13.55
2022-11-18T04:12:53.403Z,12.70
2022-11-18T04:15:20.480Z,13.38
2022-11-18T04:17:49.537Z,14.80
2022-11-18T04:20:22.035Z,14.30
2022-11-18T04:22:50.244Z,13.57
2022-11-18T04:25:17.333Z,13.80
2022-11-18T04:27:44.229Z,14.82
2022-11-18T04:30:11.686Z,14.65
2022-11-18T04:32:38.441Z,15.65
2022-11-18T04:35:05.433Z,13.25
2022-11-18T04:37:32.420Z,15.35
2022-11-18T04:39:59.162Z,14.60
2022-11-18T04:42:25.883Z,14.70
2022-11-18T04:44:52.833Z,16.08
2022-11-18T04:47:19.557Z,16.45
2022-11-18T04:49:46.302Z,15.30
2022-11-18T04:52:13.717Z,16.23
2022-11-18T04:54:40.631Z,16.05
2022-11-18T04:57:07.426Z,17.45
2022-11-18T04:59:34.353Z,17.00
2022-11-18T05:02:01.096Z,16.77
2022-11-18T05:04:31.353Z,17.77
2022-11-18T05:06:59.268Z,17.27
2022-11-18T05:09:31.588Z,18.75
2022-11-18T05:12:18.256Z,18.50
2022-11-18T05:14:49.628Z,18.73
2022-11-18T05:17:18.342Z,18.05
2022-11-18T05:19:45.045Z,18.40
2022-11-18T05:22:13.209Z,17.85
2022-11-18T05:24:40.084Z,19.05
2022-11-18T05:27:06.788Z,17.30
2022-11-18T05:29:33.636Z,18.10
2022-11-18T05:32:00.706Z,18.65
2022-11-18T05:34:27.455Z,15.25
2022-11-18T05:36:54.142Z,15.43
2022-11-18T05:39:21.407Z,15.00
2022-11-18T05:42:07.020Z,16.38
2022-11-18T05:44:33.891Z,15.57
2022-11-18T05:47:00.683Z,16.27
2022-11-18T05:49:27.546Z,16.85
2022-11-18T05:51:54.492Z,17.10
2022-11-18T05:54:22.200Z,15.70
2022-11-18T05:56:49.188Z,15.27
2022-11-18T05:59:16.647Z,17.40
2022-11-18T06:02:05.421Z,16.15
2022-11-18T06:04:39.792Z,14.88
2022-11-18T06:07:12.482Z,16.20
2022-11-18T06:09:42.152Z,14.50
2022-11-18T06:12:14.605Z,15.13
2022-11-18T06:14:49.952Z,14.07
2022-11-18T06:17:22.795Z,16.30
2022-11-18T06:19:51.306Z,15.13
2022-11-18T06:22:18.076Z,15.25
2022-11-18T06:24:47.733Z,14.48
2022-11-18T06:27:17.811Z,15.63
2022-11-18T06:29:46.784Z,13.85
2022-11-18T06:32:16.415Z,14.23
2022-11-18T06:34:43.160Z,15.65
2022-11-18T06:37:20.489Z,13.05
2022-11-18T06:39:49.697Z,14.48
2022-11-18T06:42:40.715Z,13.98
2022-11-18T06:45:07.919Z,14.23
2022-11-18T06:47:34.670Z,15.55
2022-11-18T06:50:01.572Z,14.30
2022-11-18T06:52:30.701Z,12.55
2022-11-18T06:54:57.776Z,12.70
2022-11-18T06:57:24.901Z,12.07
2022-11-18T06:59:51.759Z,14.07
2022-11-18T07:02:21.636Z,12.80
2022-11-18T07:04:51.188Z,13.48
2022-11-18T07:07:20.436Z,12.95
2022-11-18T07:15:06.825Z,12.82
2022-11-18T07:17:37.117Z,13.70
2022-11-18T07:20:04.782Z,11.80
2022-11-18T07:22:31.578Z,12.70
2022-11-18T07:25:04.830Z,14.00
2022-11-18T07:27:40.701Z,11.23
2022-11-18T07:30:09.233Z,12.35
2022-11-18T07:32:36.320Z,13.40
2022-11-18T07:35:09.720Z,13.13
2022-11-18T07:37:43.417Z,12.43
2022-11-18T07:40:10.764Z,11.85
2022-11-18T07:42:44.653Z,12.07
2022-11-18T07:45:14.373Z,11.77
2022-11-18T07:47:41.150Z,12.27
2022-11-18T07:50:13.151Z,12.98
2022-11-18T07:52:39.859Z,13.20
2022-11-18T07:55:09.992Z,12.90
2022-11-18T07:57:39.794Z,10.68
2022-11-18T08:00:13.261Z,10.63
2022-11-18T08:02:40.319Z,10.73
2022-11-18T08:05:25.447Z,11.98
2022-11-18T08:07:52.403Z,13.13
2022-11-18T08:10:20.743Z,14.30
2022-11-18T08:12:48.739Z,12.65
2022-11-18T08:15:20.347Z,12.20
2022-11-18T08:17:52.896Z,12.50
2022-11-18T08:20:19.956Z,12.73
2022-11-18T08:22:58.592Z,11.45
2022-11-18T08:25:25.460Z,12.55
2022-11-18T08:27:56.986Z,12.45
2022-11-18T08:30:25.224Z,12.93
2022-11-18T08:32:55.666Z,12.63
2022-11-18T08:35:22.543Z,12.00
2022-11-18T08:37:59.766Z,13.48
2022-11-18T08:40:26.903Z,15.35
2022-11-18T08:42:53.850Z,13.82
2022-11-18T08:45:20.594Z,13.50
2022-11-18T08:47:49.434Z,15.30
2022-11-18T08:50:20.252Z,15.60
2022-11-18T08:52:52.045Z,15.27
2022-11-18T08:55:21.357Z,14.82
2022-11-18T08:57:52.303Z,13.98
2022-11-18T09:00:24.323Z,13.35
2022-11-18T09:02:52.681Z,15.13
2022-11-18T09:05:21.990Z,16.75
2022-11-18T09:07:53.885Z,15.18
2022-11-18T09:10:25.779Z,14.00
2022-11-18T09:13:18.144Z,15.07
2022-11-18T09:15:46.058Z,14.63
2022-11-18T09:18:15.458Z,15.35
2022-11-18T09:20:44.475Z,15.90
2022-11-18T09:23:23.110Z,14.52
2022-11-18T09:26:03.560Z,16.25
2022-11-18T09:28:30.535Z,16.25
2022-11-18T09:30:57.719Z,15.57
2022-11-18T09:33:24.825Z,16.55
2022-11-18T09:35:51.905Z,17.00
2022-11-18T09:38:18.638Z,15.55
2022-11-18T09:41:24.283Z,15.65
2022-11-18T09:44:10.973Z,16.40
2022-11-18T09:47:03.484Z,20.38
2022-11-18T09:49:41.822Z,17.10
2022-11-18T09:52:39.345Z,15.90
2022-11-18T09:55:18.457Z,15.88
2022-11-18T09:57:48.942Z,15.90
2022-11-18T10:00:22.648Z,16.77
2022-11-18T10:03:01.703Z,16.40
2022-11-18T10:05:40.967Z,17.88
2022-11-18T10:08:12.119Z,18.13
2022-11-18T10:11:19.277Z,18.30
2022-11-18T10:14:26.185Z,18.27
2022-11-18T10:17:38.491Z,19.23
2022-11-18T10:20:24.818Z,25.35
2022-11-18T10:23:10.794Z,19.70
2022-11-18T10:25:37.954Z,20.30
2022-11-18T10:28:31.426Z,19.95
2022-11-18T10:31:12.090Z,19.08
2022-11-18T10:33:39.527Z,20.10
2022-11-18T10:36:27.205Z,20.35
2022-11-18T10:39:21.084Z,22.25
2022-11-18T10:41:59.761Z,22.30
2022-11-18T10:44:59.920Z,20.02
2022-11-18T10:47:32.829Z,18.98
2022-11-18T10:50:05.121Z,18.85
2022-11-18T10:52:35.066Z,17.85
2022-11-18T10:55:20.927Z,17.85
2022-11-18T10:57:49.894Z,16.63
2022-11-18T11:00:49.887Z,16.75
2022-11-18T11:04:02.155Z,16.95
2022-11-18T11:06:39.561Z,19.00
2022-11-18T11:09:08.346Z,17.35
2022-11-18T11:11:43.615Z,16.35
2022-11-18T11:14:22.578Z,16.42
2022-11-18T11:17:00.769Z,16.02
2022-11-18T11:19:55.066Z,16.38
2022-11-18T11:22:22.649Z,17.25
2022-11-18T11:24:53.215Z,20.13
2022-11-18T11:28:14.573Z,16.92
2022-11-18T11:30:51.972Z,16.88
2022-11-18T11:33:48.068Z,15.70
2022-11-18T11:36:50.710Z,16.15
2022-11-18T11:39:37.727Z,17.30
2022-11-18T11:42:06.079Z,18.38
2022-11-18T11:44:58.302Z,18.15
2022-11-18T11:48:00.657Z,16.20
2022-11-18T11:51:00.064Z,17.00
2022-11-18T11:54:17.263Z,17.52
2022-11-18T11:56:57.752Z,17.33
2022-11-18T11:59:33.141Z,17.60
2022-11-18T12:02:21.623Z,15.50
2022-11-18T12:04:51.768Z,16.83
2022-11-18T12:07:22.878Z,16.58
2022-11-18T12:09:52.735Z,16.23
2022-11-18T12:12:36.515Z,18.65
2022-11-18T12:15:18.663Z,19.40
2022-11-18T12:18:11.944Z,17.65
2022-11-18T12:20:48.672Z,17.02
2022-11-18T12:23:21.584Z,16.35
2022-11-18T12:25:48.654Z,16.52
2022-11-18T12:28:32.059Z,16.45
2022-11-18T12:31:25.864Z,16.38
2022-11-18T12:33:58.971Z,15.50
2022-11-18T12:36:30.566Z,16.77
2022-11-18T12:39:00.746Z,15.65
2022-11-18T12:41:58.167Z,17.27
2022-11-18T12:44:27.535Z,15.80
2022-11-18T12:46:56.480Z,24.52
2022-11-18T12:49:23.172Z,16.30
2022-11-18T12:52:01.142Z,15.90
2022-11-18T12:54:32.950Z,15.07
2022-11-18T12:57:13.542Z,15.10
2022-11-18T12:59:46.810Z,15.40
2022-11-18T13:02:23.482Z,17.60
2022-11-18T13:05:11.528Z,16.17
2022-11-18T13:08:17.487Z,17.70
2022-11-18T13:10:44.503Z,14.70
2022-11-18T13:13:21.317Z,14.65
2022-11-18T13:16:09.598Z,16.60
2022-11-18T13:18:50.089Z,12.90
2022-11-18T13:21:45.153Z,15.18
2022-11-18T13:24:15.763Z,14.05
2022-11-18T13:26:47.415Z,14.73
2022-11-18T13:29:35.167Z,15.38
2022-11-18T13:32:08.467Z,13.90
2022-11-18T13:34:51.771Z,15.02
2022-11-18T13:37:30.503Z,14.63
2022-11-18T13:39:57.543Z,13.90
2022-11-18T13:42:31.742Z,13.38
2022-11-18T13:45:03.370Z,14.95
2022-11-18T13:47:36.548Z,13.95
2022-11-18T13:50:30.635Z,13.43
2022-11-18T13:53:39.010Z,12.20
2022-11-18T13:56:24.098Z,11.45
2022-11-18T14:01:38.387Z,9.52
2022-11-18T14:04:19.769Z,9.68
2022-11-18T14:06:46.904Z,11.10
2022-11-18T14:09:30.602Z,11.20
2022-11-18T14:12:12.567Z,11.90
2022-11-18T14:14:42.223Z,9.65
2022-11-18T14:17:18.995Z,9.30
2022-11-18T14:19:51.445Z,10.00
2022-11-18T14:22:22.417Z,10.60
2022-11-18T14:25:02.603Z,9.95
2022-11-18T14:27:41.285Z,8.68
2022-11-18T14:30:27.278Z,9.23
2022-11-18T14:33:06.243Z,9.48
2022-11-18T14:35:36.095Z,9.52
2022-11-18T14:38:35.907Z,9.38
2022-11-18T14:41:08.508Z,8.70
2022-11-18T14:43:35.426Z,9.38
2022-11-18T14:46:15.869Z,9.40
2022-11-18T14:48:44.256Z,9.07
2022-11-18T14:51:15.682Z,10.57
2022-11-18T14:53:45.210Z,9.95
2022-11-18T14:56:38.155Z,13.35
2022-11-18T14:59:04.913Z,9.75
2022-11-18T15:01:33.097Z,11.80
2022-11-18T15:03:59.917Z,10.57
2022-11-18T15:06:28.505Z,9.60
2022-11-18T15:08:55.439Z,9.52
2022-11-18T15:11:22.582Z,9.68
2022-11-18T15:13:54.139Z,9.15
2022-11-18T15:16:23.994Z,8.82
2022-11-18T15:18:53.181Z,7.43
2022-11-18T15:21:20.683Z,9.10
2022-11-18T15:23:47.656Z,10.32
2022-11-18T15:26:26.725Z,8.88
2022-11-18T15:28:55.673Z,9.05
2022-11-18T15:31:24.388Z,8.73
2022-11-18T15:33:55.720Z,7.82
2022-11-18T15:36:26.572Z,8.43
2022-11-18T15:39:10.107Z,8.45
2022-11-18T15:41:48.011Z,8.13
2022-11-18T15:44:15.158Z,8.45
2022-11-18T15:46:43.958Z,8.55
2022-11-18T15:49:24.008Z,8.57
2022-11-18T15:51:54.545Z,9.18
2022-11-18T15:54:21.604Z,11.55
2022-11-18T15:56:52.097Z,11.38
2022-11-18T15:59:19.625Z,11.35
2022-11-18T16:01:58.495Z,10.85
2022-11-18T16:04:34.444Z,11.85
2022-11-18T16:07:04.734Z,11.18
2022-11-18T16:09:57.520Z,11.00
2022-11-18T16:12:46.648Z,11.05
2022-11-18T16:15:40.236Z,10.10
2022-11-18T16:18:07.095Z,11.52
2022-11-18T16:20:33.855Z,9.70
2022-11-18T16:23:00.626Z,9.15
2022-11-18T16:25:28.111Z,9.55
2022-11-18T16:27:57.729Z,11.45
2022-11-18T16:30:54.714Z,12.57
2022-11-18T16:33:24.341Z,10.77
2022-11-18T16:35:51.206Z,10.75
2022-11-18T16:38:26.165Z,11.40
2022-11-18T16:40:57.353Z,11.57
2022-11-18T16:43:24.990Z,11.38
2022-11-18T16:45:57.216Z,11.85
2022-11-18T16:48:25.422Z,12.43
2022-11-18T16:51:28.984Z,13.70
2022-11-18T16:54:03.151Z,15.82
2022-11-18T16:56:43.873Z,16.48
2022-11-18T17:01:58.188Z,12.35
2022-11-18T17:04:27.172Z,12.80
2022-11-18T17:06:54.829Z,13.65
2022-11-18T17:09:23.958Z,12.80
2022-11-18T17:11:53.553Z,12.63
2022-11-18T17:14:25.910Z,13.13
2022-11-18T17:16:53.294Z,13.10
2022-11-18T17:19:26.809Z,11.07
2022-11-18T17:21:53.549Z,11.55
2022-11-18T17:24:22.721Z,10.43
2022-11-18T17:26:50.531Z,13.98
2022-11-18T17:29:19.491Z,14.40
2022-11-18T17:31:47.754Z,15.05
2022-11-18T17:34:17.332Z,11.50
2022-11-18T17:36:44.511Z,11.25
2022-11-18T17:39:13.163Z,13.90
2022-11-18T17:42:03.255Z,10.98
2022-11-18T17:44:30.019Z,11.57
2022-11-18T17:46:56.832Z,11.65
2022-11-18T17:49:23.622Z,12.05
2022-11-18T17:51:51.446Z,10.73
2022-11-18T17:54:21.565Z,10.57
2022-11-18T17:56:49.837Z,11.90
2022-11-18T17:59:18.500Z,11.93
2022-11-18T18:01:45.859Z,14.05
2022-11-18T18:04:20.686Z,14.38
2022-11-18T18:06:51.608Z,12.30
2022-11-18T18:11:46.292Z,10.65
2022-11-18T18:14:13.078Z,11.15
2022-11-18T18:16:50.248Z,12.13
2022-11-18T18:19:25.582Z,12.45
2022-11-18T18:21:53.598Z,12.48
2022-11-18T18:24:21.806Z,12.88
2022-11-18T18:26:49.244Z,13.98
2022-11-18T18:29:16.111Z,12.82
2022-11-18T18:31:43.573Z,12.50
2022-11-18T18:34:14.223Z,12.38
2022-11-18T18:39:26.488Z,11.32
2022-11-18T18:42:10.836Z,13.57
2022-11-18T18:44:56.461Z,12.98
2022-11-18T18:47:23.297Z,12.02
2022-11-18T18:49:50.051Z,13.73
2022-11-18T18:52:16.791Z,15.43
2022-11-18T18:54:43.498Z,15.55
2022-11-18T18:57:13.504Z,14.98
2022-11-18T18:59:40.579Z,12.38
2022-11-18T19:02:07.511Z,13.90
2022-11-18T19:04:39.710Z,14.38
2022-11-18T19:07:08.040Z,13.38
2022-11-18T19:09:38.272Z,13.13
2022-11-18T19:12:23.993Z,12.73
2022-11-18T19:14:51.003Z,11.90
2022-11-18T19:17:20.445Z,12.27
2022-11-18T19:20:05.665Z,13.40
2022-11-18T19:22:33.258Z,14.02
2022-11-18T19:25:01.405Z,12.00
2022-11-18T19:27:29.453Z,13.65
2022-11-18T19:29:56.373Z,14.68
2022-11-18T19:32:23.627Z,12.43
2022-11-18T19:34:56.494Z,12.63
2022-11-18T19:37:34.538Z,12.52
2022-11-18T19:40:08.966Z,17.83
2022-11-18T19:42:54.706Z,15.70
2022-11-18T19:45:23.735Z,12.05
2022-11-18T19:47:50.543Z,11.65
2022-11-18T19:50:27.923Z,11.80
2022-11-18T19:52:54.683Z,11.80
2022-11-18T19:55:21.502Z,12.20
2022-11-18T19:57:48.303Z,12.15
2022-11-18T20:00:17.073Z,13.90
2022-11-18T20:02:43.821Z,13.90
2022-11-18T20:05:44.635Z,13.73
2022-11-18T20:08:13.799Z,12.18
2022-11-18T20:10:40.561Z,12.43
2022-11-18T20:13:12.935Z,13.77
2022-11-18T20:15:42.982Z,15.40
2022-11-18T20:18:10.752Z,13.68
2022-11-18T20:20:37.981Z,13.45
2022-11-18T20:23:05.484Z,13.60
2022-11-18T20:25:32.433Z,13.43
2022-11-18T20:28:01.943Z,14.45
2022-11-18T20:30:30.128Z,14.90
2022-11-18T20:33:04.191Z,13.25
2022-11-18T20:35:47.265Z,14.75
2022-11-18T20:38:21.592Z,15.63
2022-11-18T20:40:50.789Z,14.98
2022-11-18T20:43:17.607Z,13.38
2022-11-18T20:45:56.004Z,13.88
2022-11-18T20:48:25.692Z,14.48
2022-11-18T20:50:52.889Z,15.17
2022-11-18T20:53:31.398Z,14.80
2022-11-18T20:56:01.146Z,17.00
2022-11-18T21:06:26.889Z,17.17
2022-11-18T21:09:38.083Z,15.95
2022-11-18T21:12:04.933Z,13.82
2022-11-18T21:14:31.737Z,17.92
2022-11-18T21:17:13.584Z,15.90
2022-11-18T21:19:47.263Z,15.73
2022-11-18T21:22:15.147Z,14.05
2022-11-18T21:24:42.402Z,15.63
2022-11-18T21:27:10.565Z,14.27
2022-11-18T21:29:37.796Z,14.98
2022-11-18T21:32:05.245Z,14.13
2022-11-18T21:34:32.372Z,13.65
2022-11-18T21:36:59.197Z,13.38
2022-11-18T21:39:29.782Z,14.45
2022-11-18T21:41:58.214Z,15.52
2022-11-18T21:44:38.714Z,15.20
2022-11-18T21:47:09.058Z,16.15
2022-11-18T21:49:36.874Z,14.70
2022-11-18T21:52:03.727Z,14.10
2022-11-18T21:54:35.032Z,14.93
2022-11-18T21:57:09.610Z,15.40
2022-11-18T21:59:38.381Z,14.95
2022-11-18T22:02:05.112Z,15.10
2022-11-18T22:04:50.524Z,15.80
2022-11-18T22:07:17.580Z,15.52
2022-11-18T22:09:44.498Z,15.05
2022-11-18T22:12:11.390Z,15.80
2022-11-18T22:14:38.461Z,14.85
2022-11-18T22:17:09.244Z,14.45
2022-11-18T22:19:36.037Z,15.48
2022-11-18T22:22:02.892Z,15.60
2022-11-18T22:24:33.105Z,15.27
2022-11-18T22:26:59.857Z,15.88
2022-11-18T22:29:26.713Z,14.52
2022-11-18T22:31:53.652Z,16.77
2022-11-18T22:34:20.395Z,18.25
2022-11-18T22:36:47.410Z,17.38
2022-11-18T22:39:14.343Z,17.23
2022-11-18T22:42:00.013Z,17.27
2022-11-18T22:44:26.850Z,15.52
2022-11-18T22:46:53.630Z,15.75
2022-11-18T22:49:20.726Z,16.23
2022-11-18T22:51:47.709Z,17.55
2022-11-18T22:57:01.193Z,15.07
2022-11-18T22:59:27.907Z,16.60
2022-11-18T23:01:55.024Z,15.35
2022-11-18T23:04:21.973Z,15.88
2022-11-18T23:06:51.878Z,14.98
2022-11-18T23:09:18.952Z,15.88
2022-11-18T23:12:05.687Z,14.98
2022-11-18T23:14:32.667Z,16.45
2022-11-18T23:17:03.486Z,16.63
2022-11-18T23:19:30.355Z,16.63
2022-11-18T23:21:57.052Z,16.70
2022-11-18T23:24:25.559Z,14.38
2022-11-18T23:26:52.427Z,17.55
2022-11-18T23:29:20.339Z,16.17
2022-11-18T23:31:47.538Z,17.13
2022-11-18T23:34:15.650Z,15.52
2022-11-18T23:36:44.467Z,15.52
2022-11-18T23:39:11.836Z,16.40
2022-11-18T23:41:42.197Z,15.73
2022-11-18T23:44:11.445Z,15.73
2022-11-18T23:46:38.218Z,14.55
2022-11-18T23:49:09.346Z,15.48
2022-11-18T23:51:36.353Z,14.18
2022-11-18T23:54:03.263Z,15.32
2022-11-18T23:56:33.812Z,15.60
2022-11-18T23:59:03.511Z,14.95
